Time;durP1;ratioP1;P1;durP2;ratioP2;P2;SDS_P1;SDS_P2;PMS_P1;PMS_P2;Temp;Humidity;BMP_temperature;BMP_pressure;BME280_temperature;BME280_humidity;BME280_pressure;Samples;Min_cycle;Max_cycle;Signal;HPM_P1;HPM_P2
2023/06/05 00:01:42;;;;;;;9.63;3.37;;;16.60;99.90;;;;;;7288758;19;20565;-78
2023/06/05 00:04:08;;;;;;;8.67;3.30;;;16.30;99.90;;;;;;7310287;19;20396;-79
2023/06/05 00:06:34;;;;;;;7.37;2.80;;;16.50;99.90;;;;;;7288579;19;20559;-78
2023/06/05 00:09:00;;;;;;;10.53;3.20;;;16.40;99.90;;;;;;7287562;19;20186;-78
2023/06/05 00:11:26;;;;;;;8.97;2.90;;;16.30;99.90;;;;;;7287197;19;20201;-79
2023/06/05 00:13:53;;;;;;;9.77;3.03;;;16.30;99.90;;;;;;7289227;19;20185;-78
2023/06/05 00:16:18;;;;;;;6.53;3.40;;;16.10;99.90;;;;;;7286851;19;20573;-78
2023/06/05 00:18:45;;;;;;;10.27;3.23;;;16.10;99.90;;;;;;7286538;19;20185;-78
2023/06/05 00:21:12;;;;;;;8.40;3.60;;;15.90;99.90;;;;;;7291011;19;20189;-78
2023/06/05 00:23:38;;;;;;;12.73;3.10;;;15.90;99.90;;;;;;7309084;19;20293;-79
2023/06/05 00:26:04;;;;;;;9.07;3.30;;;15.90;99.90;;;;;;7287409;19;20216;-78
2023/06/05 00:28:30;;;;;;;8.00;3.03;;;16.10;99.90;;;;;;7288688;19;20535;-79
2023/06/05 00:30:56;;;;;;;8.50;3.20;;;16.10;99.90;;;;;;7286603;19;20659;-78
2023/06/05 00:33:21;;;;;;;10.33;3.50;;;16.00;99.90;;;;;;7287414;19;20240;-78
2023/06/05 00:35:47;;;;;;;9.30;3.47;;;16.00;99.90;;;;;;7287195;19;20195;-78
2023/06/05 00:38:13;;;;;;;11.73;3.37;;;16.10;99.90;;;;;;7286604;19;20197;-78
2023/06/05 00:40:39;;;;;;;9.43;3.43;;;15.90;99.90;;;;;;7310846;19;20193;-78
2023/06/05 00:43:05;;;;;;;11.17;3.37;;;15.80;99.90;;;;;;7286611;19;20196;-78
2023/06/05 00:45:31;;;;;;;10.63;3.07;;;15.80;99.90;;;;;;7284494;19;20199;-78
2023/06/05 00:47:58;;;;;;;12.07;3.60;;;15.70;99.90;;;;;;7287300;19;20198;-78
2023/06/05 00:50:25;;;;;;;11.17;3.63;;;15.80;99.90;;;;;;7285225;19;20256;-78
2023/06/05 00:52:51;;;;;;;10.03;3.10;;;15.80;99.90;;;;;;7286254;19;20192;-78
2023/06/05 00:55:18;;;;;;;10.33;3.53;;;16.00;99.90;;;;;;7286240;19;20181;-78
2023/06/05 00:57:44;;;;;;;7.67;3.07;;;15.80;99.90;;;;;;7284868;19;20380;-78
2023/06/05 01:00:12;;;;;;;8.20;2.83;;;15.80;99.90;;;;;;7296926;19;20181;-78
2023/06/05 01:02:41;;;;;;;11.37;3.57;;;15.70;99.90;;;;;;7306964;19;20215;-78
2023/06/05 01:05:08;;;;;;;9.90;3.70;;;15.50;99.90;;;;;;7285543;19;20198;-78
2023/06/05 01:07:37;;;;;;;10.03;3.30;;;15.40;99.90;;;;;;7285014;19;20188;-78
2023/06/05 01:10:05;;;;;;;8.70;3.50;;;15.50;99.90;;;;;;7286070;19;20209;-78
2023/06/05 01:12:58;;;;;;;11.53;3.47;;;15.50;99.90;;;;;;7286594;19;20276;-78
2023/06/05 01:15:30;;;;;;;8.03;3.23;;;15.50;99.90;;;;;;7181329;19;2004692;-78
2023/06/05 01:18:00;;;;;;;9.87;3.53;;;15.60;99.90;;;;;;7286394;19;20249;-78
2023/06/05 01:20:33;;;;;;;7.23;3.60;;;15.50;99.90;;;;;;7286832;19;20196;-78
2023/06/05 01:22:59;;;;;;;10.47;3.57;;;15.40;99.90;;;;;;7285608;19;21040;-79
2023/06/05 01:25:25;;;;;;;9.90;4.03;;;15.50;99.90;;;;;;7285908;19;20674;-79
2023/06/05 01:28:13;;;;;;;11.80;4.20;;;15.30;99.90;;;;;;7285483;19;20197;-78
2023/06/05 01:30:52;;;;;;;12.30;3.73;;;15.20;99.90;;;;;;7287473;19;20203;-78
2023/06/05 01:33:44;;;;;;;10.47;4.03;;;15.20;99.90;;;;;;7183317;19;2004612;-78
2023/06/05 01:36:13;;;;;;;10.47;3.70;;;15.20;99.90;;;;;;7283960;19;20298;-78
2023/06/05 01:38:41;;;;;;;10.80;3.80;;;15.20;99.90;;;;;;7322731;19;20188;-77
2023/06/05 01:41:10;;;;;;;8.50;3.60;;;15.20;99.90;;;;;;7315922;19;20210;-79
2023/06/05 01:43:37;;;;;;;10.43;3.63;;;15.20;99.90;;;;;;7287239;19;20181;-78
2023/06/05 01:46:07;;;;;;;9.83;3.57;;;15.20;99.90;;;;;;7287339;19;20205;-78
2023/06/05 01:48:33;;;;;;;11.07;4.13;;;15.00;99.90;;;;;;7286128;19;20180;-78
2023/06/05 01:51:02;;;;;;;8.90;3.80;;;14.90;99.90;;;;;;7284027;19;20708;-78
2023/06/05 01:53:29;;;;;;;10.23;3.27;;;14.80;99.90;;;;;;7283969;19;20188;-78
2023/06/05 01:55:59;;;;;;;9.20;3.87;;;14.80;99.90;;;;;;7282978;19;20188;-78
2023/06/05 01:58:26;;;;;;;11.73;4.30;;;14.90;99.90;;;;;;7283054;19;20184;-78
2023/06/05 02:00:56;;;;;;;9.67;3.93;;;15.00;99.90;;;;;;7283506;19;20192;-79
2023/06/05 02:03:24;;;;;;;8.33;3.70;;;15.00;99.90;;;;;;7284383;19;20196;-78
2023/06/05 02:05:51;;;;;;;11.47;3.87;;;14.90;99.90;;;;;;7283912;19;20185;-78
2023/06/05 02:08:19;;;;;;;9.40;3.87;;;14.90;99.90;;;;;;7283907;19;20197;-78
2023/06/05 02:10:52;;;;;;;8.27;3.70;;;14.70;99.90;;;;;;7284278;19;20596;-78
2023/06/05 02:13:19;;;;;;;9.57;4.10;;;14.80;99.90;;;;;;7282199;19;20660;-78
2023/06/05 02:15:45;;;;;;;11.87;4.30;;;14.90;99.90;;;;;;7283788;19;20180;-78
2023/06/05 02:18:13;;;;;;;9.13;3.90;;;14.80;99.90;;;;;;7282437;19;20250;-78
2023/06/05 02:20:41;;;;;;;9.53;4.13;;;14.80;99.90;;;;;;7306136;19;20197;-78
2023/06/05 02:23:10;;;;;;;9.77;4.23;;;14.60;99.90;;;;;;7282276;19;20181;-78
2023/06/05 02:25:35;;;;;;;10.10;3.87;;;14.40;99.90;;;;;;7298650;19;20214;-78
2023/06/05 02:28:01;;;;;;;8.73;4.23;;;14.40;99.90;;;;;;7285643;19;20197;-79
2023/06/05 02:30:27;;;;;;;10.23;4.23;;;14.60;99.90;;;;;;7283711;19;20216;-78
2023/06/05 02:33:00;;;;;;;10.00;4.00;;;14.40;99.90;;;;;;7283822;19;20196;-78
2023/06/05 02:35:26;;;;;;;11.17;4.23;;;14.10;99.90;;;;;;7283156;19;20199;-78
2023/06/05 02:37:56;;;;;;;10.40;4.87;;;14.30;99.90;;;;;;7283332;19;20662;-78
2023/06/05 02:40:22;;;;;;;9.60;4.23;;;14.30;99.90;;;;;;7283509;19;20209;-78
2023/06/05 02:42:47;;;;;;;9.03;3.87;;;14.30;99.90;;;;;;7282438;19;20188;-78
2023/06/05 02:45:13;;;;;;;11.63;4.00;;;14.20;99.90;;;;;;7282139;19;20196;-78
2023/06/05 02:47:39;;;;;;;11.93;4.53;;;14.10;99.90;;;;;;7302738;19;20299;-78
2023/06/05 02:50:07;;;;;;;12.23;4.97;;;14.10;99.90;;;;;;7295446;19;20283;-78
2023/06/05 02:52:39;;;;;;;10.00;4.43;;;14.30;99.90;;;;;;7284108;19;20201;-78
2023/06/05 02:55:11;;;;;;;10.63;4.37;;;14.50;99.90;;;;;;7261003;19;20197;-78
2023/06/05 02:57:41;;;;;;;10.27;4.57;;;14.30;99.90;;;;;;7303685;19;21020;-78
2023/06/05 03:00:14;;;;;;;9.67;4.80;;;14.30;99.90;;;;;;7262712;19;20183;-78
2023/06/05 03:02:48;;;;;;;12.90;4.13;;;14.30;99.90;;;;;;7283009;19;20204;-78
2023/06/05 03:05:24;;;;;;;10.67;4.80;;;14.30;99.90;;;;;;7282008;19;20195;-78
2023/06/05 03:07:54;;;;;;;12.57;4.57;;;14.30;99.90;;;;;;7282320;19;20199;-77
2023/06/05 03:10:21;;;;;;;10.17;4.50;;;14.30;99.90;;;;;;7282396;19;20707;-78
2023/06/05 03:12:48;;;;;;;12.03;5.07;;;14.30;99.90;;;;;;7283218;19;20533;-78
2023/06/05 03:15:16;;;;;;;10.87;4.43;;;14.40;99.90;;;;;;7281165;19;20194;-78
2023/06/05 03:17:42;;;;;;;12.13;4.33;;;14.40;99.90;;;;;;7281996;19;20595;-78
2023/06/05 03:20:09;;;;;;;11.33;4.80;;;14.20;99.90;;;;;;7303740;19;20251;-78
2023/06/05 03:22:35;;;;;;;12.90;5.33;;;14.20;99.90;;;;;;7280681;19;20194;-78
2023/06/05 03:25:02;;;;;;;9.47;4.90;;;14.30;99.90;;;;;;7285322;19;20232;-78
2023/06/05 03:27:27;;;;;;;11.77;5.23;;;14.20;99.90;;;;;;7287967;19;20281;-78
2023/06/05 03:29:53;;;;;;;11.83;5.03;;;14.10;99.90;;;;;;7288774;19;20199;-77
2023/06/05 03:32:19;;;;;;;12.60;4.50;;;13.90;99.90;;;;;;7286946;19;20189;-78
2023/06/05 03:34:48;;;;;;;11.40;5.10;;;13.80;99.90;;;;;;7289277;19;20192;-78
2023/06/05 03:37:15;;;;;;;12.33;5.00;;;13.90;99.90;;;;;;7286984;19;20662;-78
2023/06/05 03:39:41;;;;;;;9.40;4.67;;;13.90;99.90;;;;;;7294817;19;20255;-78
2023/06/05 03:42:09;;;;;;;11.17;5.60;;;13.80;99.90;;;;;;7310777;19;20676;-78
2023/06/05 03:44:35;;;;;;;14.53;5.17;;;13.90;99.90;;;;;;7288793;19;20220;-77
2023/06/05 03:47:01;;;;;;;13.97;5.33;;;14.00;99.90;;;;;;7287392;19;20186;-78
2023/06/05 03:49:28;;;;;;;15.00;5.80;;;14.00;99.90;;;;;;7287636;19;20212;-78
2023/06/05 03:52:00;;;;;;;12.20;5.53;;;13.90;99.90;;;;;;7287371;19;20189;-78
2023/06/05 03:54:32;;;;;;;11.10;5.50;;;13.80;99.90;;;;;;7287747;19;20248;-78
2023/06/05 03:57:00;;;;;;;12.73;5.70;;;13.80;99.90;;;;;;7286470;19;20187;-78
2023/06/05 03:59:28;;;;;;;13.67;6.10;;;13.60;99.90;;;;;;7287148;19;20277;-78
2023/06/05 04:01:58;;;;;;;12.30;5.57;;;13.80;99.90;;;;;;7288069;19;20638;-78
2023/06/05 04:04:24;;;;;;;14.23;5.60;;;13.90;99.90;;;;;;7286868;19;20195;-78
2023/06/05 04:06:54;;;;;;;13.90;5.83;;;14.00;99.90;;;;;;7288590;19;20200;-78
2023/06/05 04:09:21;;;;;;;13.07;5.10;;;13.90;99.90;;;;;;7287857;19;20189;-78
2023/06/05 04:11:47;;;;;;;11.33;5.17;;;13.90;99.90;;;;;;7287233;19;20200;-78
2023/06/05 04:14:13;;;;;;;12.97;5.57;;;14.00;99.90;;;;;;7287524;19;20205;-78
2023/06/05 04:16:42;;;;;;;13.13;6.20;;;14.00;99.90;;;;;;7308955;19;20188;-78
2023/06/05 04:19:12;;;;;;;14.77;5.80;;;14.30;99.90;;;;;;7289740;19;20189;-78
2023/06/05 04:21:41;;;;;;;11.67;5.97;;;14.10;99.90;;;;;;7289473;19;20570;-78
2023/06/05 04:24:10;;;;;;;13.23;5.70;;;14.20;99.90;;;;;;7287965;19;20214;-78
2023/06/05 04:26:38;;;;;;;11.40;6.10;;;14.30;99.90;;;;;;7288299;19;20193;-78
2023/06/05 04:29:13;;;;;;;11.90;5.90;;;14.40;99.90;;;;;;7287565;19;20200;-78
2023/06/05 04:31:40;;;;;;;10.93;5.80;;;14.40;99.90;;;;;;7289368;19;20190;-79
2023/06/05 04:34:08;;;;;;;14.13;5.77;;;14.70;99.90;;;;;;7288763;19;20188;-78
2023/06/05 04:36:35;;;;;;;12.80;5.20;;;15.10;99.90;;;;;;7286102;19;20705;-78
2023/06/05 04:39:01;;;;;;;13.67;5.17;;;15.50;99.90;;;;;;7289427;19;20189;-78
2023/06/05 04:41:29;;;;;;;12.50;5.30;;;15.90;99.90;;;;;;7286755;19;20188;-78
2023/06/05 04:43:57;;;;;;;10.47;4.97;;;16.30;99.90;;;;;;7288101;19;20188;-78
2023/06/05 04:46:23;;;;;;;13.43;5.20;;;16.60;99.90;;;;;;7286416;19;20192;-77
2023/06/05 04:48:52;;;;;;;11.60;4.70;;;17.00;99.90;;;;;;7285807;19;20277;-76
2023/06/05 04:51:18;;;;;;;12.07;5.07;;;17.20;99.90;;;;;;7285882;19;20731;-77
2023/06/05 04:53:43;;;;;;;13.13;5.27;;;17.30;99.90;;;;;;7287198;19;20189;-77
2023/06/05 04:56:09;;;;;;;10.70;5.07;;;17.40;99.90;;;;;;7308055;19;20193;-77
2023/06/05 04:58:37;;;;;;;11.77;4.93;;;17.50;99.90;;;;;;7287359;19;20197;-77
2023/06/05 05:01:04;;;;;;;12.03;5.73;;;17.60;99.90;;;;;;7285009;19;20190;-77
2023/06/05 05:03:32;;;;;;;12.60;5.00;;;17.70;99.90;;;;;;7285450;19;20224;-77
2023/06/05 05:05:58;;;;;;;11.20;5.07;;;18.00;99.90;;;;;;7283531;19;20560;-77
2023/06/05 05:08:24;;;;;;;10.43;5.07;;;18.30;99.90;;;;;;7285116;19;20220;-78
2023/06/05 05:10:50;;;;;;;11.30;5.23;;;18.40;99.90;;;;;;7284202;19;20202;-77
2023/06/05 05:13:16;;;;;;;12.17;5.43;;;18.80;99.90;;;;;;7285150;19;20285;-77
2023/06/05 05:15:43;;;;;;;12.27;5.00;;;18.90;99.90;;;;;;7285205;19;20198;-78
2023/06/05 05:18:08;;;;;;;12.27;5.10;;;18.70;99.90;;;;;;7307114;19;20197;-77
2023/06/05 05:20:34;;;;;;;13.10;5.80;;;18.60;99.90;;;;;;7286326;19;20233;-78
2023/06/05 05:23:01;;;;;;;9.13;5.20;;;18.50;99.90;;;;;;7284054;19;20577;-78
2023/06/05 05:25:27;;;;;;;11.20;5.17;;;18.70;99.90;;;;;;7285418;19;20645;-77
2023/06/05 05:27:53;;;;;;;10.67;5.57;;;19.10;99.90;;;;;;7282409;19;20270;-77
2023/06/05 05:30:19;;;;;;;11.40;5.23;;;19.50;99.90;;;;;;7284114;19;20184;-77
2023/06/05 05:32:45;;;;;;;11.87;5.53;;;19.70;99.90;;;;;;7284771;19;20712;-79
2023/06/05 05:35:12;;;;;;;13.00;5.80;;;19.80;99.90;;;;;;7283256;19;20182;-79
2023/06/05 05:37:38;;;;;;;10.60;5.40;;;20.00;99.90;;;;;;7306664;19;20209;-78
2023/06/05 05:40:05;;;;;;;10.83;5.67;;;19.90;99.90;;;;;;7280340;19;20669;-78
2023/06/05 05:42:32;;;;;;;9.70;5.43;;;20.30;99.90;;;;;;7284777;19;20180;-78
2023/06/05 05:44:59;;;;;;;12.80;5.80;;;20.30;99.90;;;;;;7284499;19;20216;-77
2023/06/05 05:47:24;;;;;;;10.53;5.33;;;20.50;99.90;;;;;;7284298;19;20223;-80
2023/06/05 05:49:50;;;;;;;10.97;5.97;;;21.00;99.90;;;;;;7285207;19;20191;-80
2023/06/05 05:52:17;;;;;;;12.17;5.70;;;21.60;99.90;;;;;;7284879;19;20205;-80
2023/06/05 05:54:43;;;;;;;12.30;5.73;;;22.20;99.90;;;;;;7285683;19;20267;-80
2023/06/05 05:57:09;;;;;;;11.10;5.50;;;23.20;99.90;;;;;;7305980;19;20185;-80
2023/06/05 05:59:35;;;;;;;11.40;5.97;;;23.10;99.90;;;;;;7286822;19;20180;-80
2023/06/05 06:02:08;;;;;;;9.97;5.17;;;22.20;99.90;;;;;;7283304;19;20189;-80
2023/06/05 06:04:34;;;;;;;12.97;5.83;;;21.90;99.90;;;;;;7284223;19;20183;-80
2023/06/05 06:07:00;;;;;;;11.97;5.40;;;21.60;99.90;;;;;;7284421;19;20931;-80
2023/06/05 06:09:26;;;;;;;13.70;5.70;;;21.60;99.90;;;;;;7283778;19;20191;-80
2023/06/05 06:11:55;;;;;;;11.70;5.87;;;21.40;99.90;;;;;;7284629;19;20194;-80
2023/06/05 06:14:22;;;;;;;9.53;5.27;;;22.00;99.90;;;;;;7285539;19;20209;-81
2023/06/05 06:16:49;;;;;;;11.17;5.27;;;21.90;99.90;;;;;;7283496;19;20200;-79
2023/06/05 06:19:16;;;;;;;12.30;5.33;;;22.20;99.90;;;;;;7283813;19;20196;-79
2023/06/05 06:21:42;;;;;;;13.03;6.33;;;22.30;99.90;;;;;;7288098;19;20669;-80
2023/06/05 06:24:08;;;;;;;12.07;5.10;;;22.30;99.90;;;;;;7304484;19;20189;-80
2023/06/05 06:26:39;;;;;;;13.77;5.73;;;23.10;99.90;;;;;;7284831;19;20672;-80
2023/06/05 06:29:04;;;;;;;11.73;5.60;;;23.40;99.90;;;;;;7282603;19;20197;-80
2023/06/05 06:31:30;;;;;;;12.03;5.73;;;23.70;99.90;;;;;;7283481;19;20200;-80
2023/06/05 06:33:56;;;;;;;12.10;5.63;;;23.70;99.90;;;;;;7283807;19;20205;-81
2023/06/05 06:36:22;;;;;;;11.80;5.57;;;23.50;99.90;;;;;;7283083;19;20193;-80
2023/06/05 06:38:48;;;;;;;10.40;5.87;;;23.20;99.90;;;;;;7282167;19;20538;-79
2023/06/05 06:41:13;;;;;;;10.80;5.67;;;23.00;99.90;;;;;;7283534;19;20195;-79
2023/06/05 06:43:39;;;;;;;13.33;6.30;;;22.90;99.90;;;;;;7304494;19;20743;-79
2023/06/05 06:46:06;;;;;;;11.63;5.93;;;23.20;99.90;;;;;;7283585;19;20188;-80
2023/06/05 06:48:32;;;;;;;12.83;6.37;;;22.90;99.90;;;;;;7283032;19;20309;-81
2023/06/05 06:50:58;;;;;;;20.47;6.20;;;22.80;99.90;;;;;;7283449;19;20181;-80
2023/06/05 06:53:24;;;;;;;10.83;5.57;;;22.90;99.90;;;;;;7283787;19;20230;-80
2023/06/05 06:55:49;;;;;;;12.77;5.83;;;23.20;99.90;;;;;;7283714;19;20199;-80
2023/06/05 06:58:16;;;;;;;13.93;6.00;;;23.30;99.90;;;;;;7284051;19;20185;-80
2023/06/05 07:00:42;;;;;;;13.27;5.80;;;23.20;99.90;;;;;;7291184;19;20181;-80
2023/06/05 07:03:08;;;;;;;13.80;5.77;;;23.20;99.90;;;;;;7311505;19;20206;-80
2023/06/05 07:05:34;;;;;;;13.20;5.90;;;23.70;99.90;;;;;;7287786;19;20181;-80
2023/06/05 07:08:00;;;;;;;10.75;5.65;;;24.40;99.90;;;;;;7289160;19;21605;-80
2023/06/05 07:10:28;;;;;;;15.13;5.93;;;24.20;99.90;;;;;;7288055;19;20188;-80
2023/06/05 07:12:54;;;;;;;12.20;5.70;;;24.20;99.90;;;;;;7289703;19;20201;-80
2023/06/05 07:15:20;;;;;;;13.93;6.53;;;24.60;99.90;;;;;;7289207;19;20212;-80
2023/06/05 07:17:46;;;;;;;11.93;6.15;;;25.50;99.90;;;;;;7288689;19;20210;-80
2023/06/05 07:20:12;;;;;;;14.05;7.07;;;26.10;99.90;;;;;;7293555;19;20221;-80
2023/06/05 07:22:43;;;;;;;12.13;6.20;;;26.10;99.90;;;;;;7309519;19;20205;-80
2023/06/05 07:25:09;;;;;;;10.55;6.22;;;26.60;99.90;;;;;;7291221;19;20192;-81
2023/06/05 07:27:35;;;;;;;14.60;6.75;;;26.50;99.90;;;;;;7289785;19;20664;-81
2023/06/05 07:30:02;;;;;;;11.65;6.18;;;26.80;99.90;;;;;;7288714;19;20182;-81
2023/06/05 07:32:27;;;;;;;13.75;6.10;;;26.20;99.90;;;;;;7288092;19;20218;-81
2023/06/05 07:34:53;;;;;;;13.70;6.60;;;27.40;99.90;;;;;;7289310;19;20252;-81
2023/06/05 07:37:19;;;;;;;10.73;6.63;;;27.70;99.90;;;;;;7287570;19;20192;-80
2023/06/05 07:39:44;;;;;;;10.88;6.40;;;27.20;99.90;;;;;;7287303;19;20177;-80
2023/06/05 07:42:10;;;;;;;14.93;6.40;;;27.20;99.90;;;;;;7306462;19;20276;-81
2023/06/05 07:44:36;;;;;;;13.95;7.00;;;27.30;99.90;;;;;;7298876;19;20181;-80
2023/06/05 07:47:02;;;;;;;12.27;6.43;;;26.80;99.90;;;;;;7288444;19;20932;-80
2023/06/05 07:49:33;;;;;;;14.82;7.55;;;27.40;99.90;;;;;;7289723;19;20192;-80
2023/06/05 07:51:59;;;;;;;12.52;6.90;;;26.90;99.90;;;;;;7289133;19;20356;-81
2023/06/05 07:54:25;;;;;;;14.88;6.82;;;27.80;99.90;;;;;;7290128;19;20188;-81
2023/06/05 07:56:51;;;;;;;13.77;7.38;;;27.80;99.90;;;;;;7289641;19;20177;-81
2023/06/05 07:59:22;;;;;;;13.15;7.22;;;27.90;99.90;;;;;;7291608;19;20252;-80
2023/06/05 08:01:49;;;;;;;15.55;6.65;;;27.70;99.90;;;;;;7288319;19;20189;-81
2023/06/05 08:04:15;;;;;;;13.45;7.45;;;27.40;99.90;;;;;;7288757;19;20232;-80
2023/06/05 08:06:41;;;;;;;13.98;7.03;;;27.20;99.90;;;;;;7304076;19;20673;-81
2023/06/05 08:09:09;;;;;;;12.32;7.07;;;27.60;99.90;;;;;;7309642;19;20200;-80
2023/06/05 08:11:37;;;;;;;14.98;7.15;;;28.30;99.50;;;;;;7286899;19;20219;-80
2023/06/05 08:14:03;;;;;;;12.73;6.63;;;29.40;96.70;;;;;;7288524;19;20732;-80
2023/06/05 08:16:29;;;;;;;13.32;7.05;;;28.90;96.90;;;;;;7287467;19;20203;-81
2023/06/05 08:18:57;;;;;;;16.48;7.40;;;28.50;96.60;;;;;;7288624;19;20189;-81
2023/06/05 08:21:22;;;;;;;15.02;7.47;;;29.00;95.90;;;;;;7287824;19;20184;-81
2023/06/05 08:23:48;;;;;;;17.15;7.95;;;28.70;95.60;;;;;;7285504;19;20205;-80
2023/06/05 08:26:14;;;;;;;13.88;7.50;;;28.50;96.30;;;;;;7284949;19;20196;-80
2023/06/05 08:28:41;;;;;;;13.68;6.97;;;28.10;96.60;;;;;;7309149;19;20192;-81
2023/06/05 08:31:08;;;;;;;12.95;7.13;;;28.60;97.20;;;;;;7288482;19;20260;-81
2023/06/05 08:33:34;;;;;;;15.43;7.35;;;28.60;95.40;;;;;;7287469;19;20204;-81
2023/06/05 08:36:01;;;;;;;14.73;7.60;;;27.90;95.50;;;;;;7286003;19;21349;-81
2023/06/05 08:38:28;;;;;;;12.38;7.13;;;28.50;95.90;;;;;;7287413;19;20549;-81
2023/06/05 08:41:00;;;;;;;13.45;7.25;;;28.70;95.00;;;;;;7286837;19;20192;-81
2023/06/05 08:43:27;;;;;;;13.82;7.00;;;29.20;94.80;;;;;;7285051;19;20702;-80
2023/06/05 08:45:53;;;;;;;16.65;8.25;;;28.60;95.30;;;;;;7286815;19;20228;-81
2023/06/05 08:48:21;;;;;;;16.23;7.43;;;27.90;95.00;;;;;;7286203;19;20185;-81
2023/06/05 08:50:48;;;;;;;14.45;7.47;;;28.30;95.10;;;;;;7286001;19;20181;-81
2023/06/05 08:53:17;;;;;;;15.32;8.13;;;28.80;95.40;;;;;;7286626;19;20281;-80
2023/06/05 08:55:47;;;;;;;14.50;7.22;;;28.70;93.90;;;;;;7285939;19;20244;-81
2023/06/05 08:58:14;;;;;;;13.35;6.78;;;29.30;95.60;;;;;;7285248;19;20198;-81
2023/06/05 09:00:40;;;;;;;15.57;7.38;;;29.00;93.30;;;;;;7308699;19;20692;-80
2023/06/05 09:03:06;;;;;;;13.27;6.78;;;29.90;93.00;;;;;;7286045;19;20185;-81
2023/06/05 09:05:32;;;;;;;14.52;7.80;;;30.00;91.90;;;;;;7285361;19;20182;-81
2023/06/05 09:08:01;;;;;;;16.52;7.93;;;30.40;90.30;;;;;;7285733;19;20193;-81
2023/06/05 09:10:28;;;;;;;17.00;7.60;;;30.00;90.70;;;;;;7286003;19;20206;-81
2023/06/05 09:12:58;;;;;;;17.83;6.95;;;30.60;90.90;;;;;;7286268;19;20217;-81
2023/06/05 09:15:28;;;;;;;12.90;7.95;;;30.90;90.50;;;;;;7286451;19;20677;-80
2023/06/05 09:18:11;;;;;;;14.88;6.57;;;30.90;88.00;;;;;;7281750;19;20641;-80
2023/06/05 09:20:46;;;;;;;14.60;6.97;;;30.80;86.90;;;;;;7286533;19;20185;-80
2023/06/05 09:23:24;;;;;;;16.00;8.00;;;30.00;90.20;;;;;;7271229;19;20184;-81
2023/06/05 09:25:50;;;;;;;12.27;7.10;;;29.90;88.90;;;;;;7285692;19;20185;-81
2023/06/05 09:28:17;;;;;;;13.27;8.00;;;30.50;88.10;;;;;;7286803;19;20196;-81
2023/06/05 09:30:53;;;;;;;16.13;7.18;;;30.70;86.40;;;;;;7284096;19;20606;-81
2023/06/05 09:33:19;;;;;;;19.75;7.30;;;29.90;88.30;;;;;;7286258;19;20188;-81
2023/06/05 09:35:44;;;;;;;16.85;7.47;;;29.90;89.90;;;;;;7283297;19;20184;-81
2023/06/05 09:38:26;;;;;;;13.80;8.15;;;30.60;88.20;;;;;;7305900;19;20790;-80
2023/06/05 09:40:52;;;;;;;17.25;7.55;;;31.00;85.50;;;;;;7183158;19;2006424;-81
2023/06/05 09:43:22;;;;;;;15.98;7.78;;;30.80;86.40;;;;;;7286135;19;20192;-81
2023/06/05 09:45:48;;;;;;;15.65;6.65;;;30.80;83.40;;;;;;7285654;19;20254;-81
2023/06/05 09:48:15;;;;;;;15.63;7.05;;;30.80;85.40;;;;;;7284406;19;20580;-81
2023/06/05 09:50:41;;;;;;;14.30;7.25;;;30.40;84.00;;;;;;7305056;19;20218;-81
2023/06/05 09:53:09;;;;;;;14.65;7.82;;;30.90;83.10;;;;;;7298672;19;20192;-81
2023/06/05 09:55:36;;;;;;;12.55;6.95;;;31.20;79.80;;;;;;7284813;19;20185;-81
2023/06/05 09:58:11;;;;;;;15.98;7.47;;;30.90;80.30;;;;;;7284713;19;20191;-81
2023/06/05 10:00:39;;;;;;;17.42;7.57;;;31.00;80.70;;;;;;7286715;19;20187;-81
2023/06/05 10:03:14;;;;;;;17.27;8.05;;;31.30;81.60;;;;;;7284414;19;20217;-81
2023/06/05 10:05:44;;;;;;;18.38;8.10;;;31.40;81.90;;;;;;7282517;19;20522;-81
2023/06/05 10:08:12;;;;;;;16.08;7.80;;;31.40;79.20;;;;;;7306030;19;20256;-81
2023/06/05 10:10:39;;;;;;;15.48;7.65;;;31.70;78.30;;;;;;7285596;19;20637;-81
2023/06/05 10:13:05;;;;;;;16.02;7.55;;;31.20;79.20;;;;;;7283599;19;20275;-81
2023/06/05 10:15:33;;;;;;;17.17;7.40;;;30.90;80.20;;;;;;7285417;19;20304;-81
2023/06/05 10:17:59;;;;;;;17.27;8.38;;;32.20;79.00;;;;;;7285031;19;20185;-81
2023/06/05 10:20:25;;;;;;;15.52;7.45;;;31.90;78.70;;;;;;7283909;19;20209;-81
2023/06/05 10:22:52;;;;;;;13.27;7.28;;;31.10;77.50;;;;;;7284956;19;20196;-81
2023/06/05 10:25:20;;;;;;;13.18;6.60;;;30.60;78.50;;;;;;7285528;19;20184;-81
2023/06/05 10:28:24;;;;;;;14.45;6.85;;;31.00;80.10;;;;;;7284178;19;20193;-81
2023/06/05 10:31:01;;;;;;;17.75;6.18;;;31.50;77.30;;;;;;7180931;19;2005077;-81
2023/06/05 10:33:51;;;;;;;13.50;6.32;;;31.50;75.80;;;;;;7284568;19;20261;-81
2023/06/05 10:36:41;;;;;;;13.05;6.75;;;32.50;77.30;;;;;;7179698;19;2004645;-81
2023/06/05 10:39:10;;;;;;;13.70;6.57;;;33.10;73.20;;;;;;7285072;19;20228;-81
2023/06/05 10:41:36;;;;;;;12.77;6.18;;;33.20;71.20;;;;;;7284949;19;20289;-81
2023/06/05 10:44:01;;;;;;;13.45;5.70;;;32.50;73.20;;;;;;7282255;19;20198;-81
2023/06/05 10:46:28;;;;;;;15.27;6.47;;;32.20;70.90;;;;;;7284708;19;20191;-81
2023/06/05 10:49:12;;;;;;;9.48;5.50;;;32.00;72.90;;;;;;7282842;19;20209;-81
2023/06/05 10:51:58;;;;;;;13.52;6.68;;;32.90;72.60;;;;;;7283911;19;20207;-81
2023/06/05 10:54:24;;;;;;;14.40;6.95;;;33.20;69.20;;;;;;7181370;19;2006516;-81
2023/06/05 10:56:57;;;;;;;12.93;6.40;;;32.40;70.70;;;;;;7282294;19;20181;-81
2023/06/05 10:59:26;;;;;;;12.75;6.30;;;32.60;69.80;;;;;;7284717;19;20188;-81
2023/06/05 11:02:16;;;;;;;13.20;6.45;;;32.40;71.80;;;;;;7283976;19;20540;-81
2023/06/05 11:04:47;;;;;;;10.55;5.88;;;32.80;70.00;;;;;;7263508;19;20189;-81
2023/06/05 11:07:17;;;;;;;9.73;4.95;;;31.90;70.10;;;;;;7281648;19;20303;-81
2023/06/05 11:10:08;;;;;;;9.85;4.05;;;31.60;67.90;;;;;;7283554;19;20343;-81
2023/06/05 11:12:41;;;;;;;9.98;5.32;;;32.40;69.90;;;;;;7282857;19;20197;-81
2023/06/05 11:15:08;;;;;;;10.68;5.45;;;32.70;67.40;;;;;;7282516;19;20189;-81
2023/06/05 11:17:35;;;;;;;9.95;5.13;;;32.80;66.90;;;;;;7280912;19;20188;-81
2023/06/05 11:20:22;;;;;;;8.70;4.10;;;33.00;66.70;;;;;;7282868;19;20652;-81
2023/06/05 11:22:53;;;;;;;9.48;4.32;;;32.00;66.70;;;;;;7179502;19;2004630;-81
2023/06/05 11:25:24;;;;;;;9.98;4.80;;;31.40;66.60;;;;;;7280175;19;20192;-80
2023/06/05 11:27:56;;;;;;;12.43;5.20;;;31.50;67.50;;;;;;7278760;19;20213;-81
2023/06/05 11:30:29;;;;;;;10.43;4.00;;;31.30;69.20;;;;;;7279901;19;20193;-81
2023/06/05 11:32:58;;;;;;;9.02;3.80;;;32.90;68.40;;;;;;7282132;19;20232;-80
2023/06/05 11:35:28;;;;;;;9.48;4.03;;;33.00;64.80;;;;;;7281484;19;20201;-81
2023/06/05 11:38:15;;;;;;;9.45;4.88;;;32.40;62.10;;;;;;7282138;19;20200;-81
2023/06/05 11:40:43;;;;;;;8.40;4.15;;;31.70;64.40;;;;;;7273341;19;20200;-80
2023/06/05 11:43:14;;;;;;;8.75;4.75;;;31.40;64.80;;;;;;7304275;19;20753;-81
2023/06/05 11:45:41;;;;;;;11.30;4.50;;;30.40;64.90;;;;;;7283412;19;20293;-81
2023/06/05 11:48:08;;;;;;;12.45;3.95;;;30.50;65.90;;;;;;7288578;19;20657;-81
2023/06/05 11:50:35;;;;;;;11.45;4.60;;;30.70;66.60;;;;;;7288622;19;20541;-81
2023/06/05 11:53:05;;;;;;;9.00;4.28;;;29.80;65.00;;;;;;7289341;19;20181;-81
2023/06/05 11:55:43;;;;;;;8.32;3.63;;;30.00;66.90;;;;;;7288310;19;20218;-81
2023/06/05 11:58:10;;;;;;;10.57;4.57;;;31.10;66.80;;;;;;7288966;19;20185;-81
2023/06/05 12:00:36;;;;;;;6.75;3.95;;;31.20;64.80;;;;;;7288797;19;20189;-81
2023/06/05 12:03:02;;;;;;;7.43;3.10;;;31.20;65.30;;;;;;7286151;19;20594;-81
2023/06/05 12:05:28;;;;;;;7.55;3.22;;;29.80;65.40;;;;;;7288567;19;20218;-81
2023/06/05 12:07:55;;;;;;;9.20;3.55;;;29.10;65.50;;;;;;7287060;19;20196;-81
2023/06/05 12:10:36;;;;;;;7.63;4.63;;;28.20;67.70;;;;;;7286932;19;20213;-81
2023/06/05 12:13:02;;;;;;;8.98;4.82;;;27.50;70.50;;;;;;7287298;19;20196;-81
2023/06/05 12:15:28;;;;;;;13.55;5.43;;;27.20;71.00;;;;;;7287378;19;20212;-81
2023/06/05 12:17:56;;;;;;;14.13;4.50;;;27.30;75.80;;;;;;7285700;19;20200;-81
2023/06/05 12:20:22;;;;;;;10.57;4.30;;;27.20;73.90;;;;;;7288366;19;20283;-81
2023/06/05 12:22:48;;;;;;;10.52;3.70;;;26.90;73.80;;;;;;7283487;19;20264;-80
2023/06/05 12:25:23;;;;;;;10.75;3.90;;;26.80;74.50;;;;;;7293517;19;20221;-80
2023/06/05 12:27:49;;;;;;;8.25;3.03;;;27.00;75.00;;;;;;7287670;19;20672;-80
2023/06/05 12:30:17;;;;;;;5.53;3.20;;;26.90;71.80;;;;;;7289864;19;20217;-80
2023/06/05 12:32:43;;;;;;;9.77;3.85;;;26.90;75.50;;;;;;7310015;19;20189;-81
2023/06/05 12:35:27;;;;;;;9.73;4.10;;;26.90;74.70;;;;;;7287309;19;20263;-81
2023/06/05 12:37:59;;;;;;;6.70;3.53;;;27.00;76.50;;;;;;7184514;19;2004997;-81
2023/06/05 12:40:25;;;;;;;4.95;2.88;;;26.90;77.00;;;;;;7288435;19;20210;-81
2023/06/05 12:42:51;;;;;;;13.30;3.60;;;26.50;70.90;;;;;;7286393;19;20189;-81
2023/06/05 12:45:17;;;;;;;9.20;3.38;;;26.20;74.10;;;;;;7286361;19;20633;-81